Decoded Metar for EIDW (DUBLIN in IRELAND) (IATA:DUB) | Meteo·Mobile Aviation Weather
aviador You're here:

EIDW Decoded Metar

DUBLIN in IRELAND
Report Time2018-11-21 07:00:00
UTC Time2018-11-21 07:32:07
Flight Rules mvfr MVFR
Wind100° at 11 kt
W.Decomp.*RWY 10: 11.0 kt HW 0.8 kt RCW
RWY 16: 6.2 kt HW 9.1 kt LCW
W.Rank100° ranks 22
Current wind is above 100° avg. (7.9)
Visibility9999 m
Phenomena:Light Rain
Clouds:Scattered 009 Hf
Scattered 017 Hf
Broken 023 Hf
Expected CloudBase > 400 ft AGL from Temp-Dew spread
Ceiling2,300 ft
Temp05°C (ISA -10)
Dew Point04°C (93% RH)
AAT-0.3°C
QNH1004 hPa
Density Alt-489 ft
Elevation242 ft
Report Wrong Elevation
Raw Report
METAR EIDW 210700Z 10011KT 9999 -RA SCT009 SCT017 BKN023 05/04 Q1004
NOSIG=

Extra information for EIDW:More info

Metar Taf Metar & Taf Last 4 Metars F.Rules Stats Wind Profile Meteogram Temp Stats Airport Information Weather charts Add Link Nearby VenuesMetar ALERT Operation Metar Decoded Social comments